Decoded METAR's for South Africa

 
 
Print Page

Back to Weather Page

 
 

Bloemfontein - South Africa, FABL

ADDS - TAFS form results

Aviation Digital Data Service (ADDS)

Output produced by TAFs form (1203 UTC 21 September 2017)
found at http://aviationweather.gov/adds/tafs/
 
METAR text: FABL 211100Z 34014KT 310V020 CAVOK 30/08 Q1023 NOSIG
Conditions at: FABL (BLOEMFONTEIN/HER, ZA) observed 1100 UTC 21 September 2017
Temperature: 30.0°C (86°F)
Dewpoint: 8.0°C (46°F) [RH = 25%]
Pressure (altimeter): 30.21 inches Hg (1023.0 mb)
Winds: from the NNW (340 degrees) at 16 MPH (14 knots; 7.3 m/s)
Visibility: 6 or more miles (10+ km)
Ceiling: ceiling and visibility are OK
Clouds: unknown
Weather: no significant weather observed at this time

Array
Cape Town - South Africa, FACT

ADDS - TAFS form results

Aviation Digital Data Service (ADDS)

Output produced by TAFs form (1203 UTC 21 September 2017)
found at http://aviationweather.gov/adds/tafs/
 
METAR text: FACT 211100Z 34013KT 9999 FEW004 18/15 Q1012 NOSIG
Conditions at: FACT (CAPETOWN/DF MALA, ZA) observed 1100 UTC 21 September 2017
Temperature: 18.0°C (64°F)
Dewpoint: 15.0°C (59°F) [RH = 83%]
Pressure (altimeter): 29.88 inches Hg (1012.0 mb)
Winds: from the NNW (340 degrees) at 15 MPH (13 knots; 6.8 m/s)
Visibility: 6 or more miles (10+ km)
Ceiling: at least 12,000 feet AGL
Clouds: few clouds at 400 feet AGL
Weather: no significant weather observed at this time

Array
Durban - South Africa, FALE

ADDS - TAFS form results

Aviation Digital Data Service (ADDS)

Output produced by TAFs form (1203 UTC 21 September 2017)
found at http://aviationweather.gov/adds/tafs/
 
METAR text: FALE 211157Z 03016G26KT CAVOK 24/18 Q1015 NOSIG
Conditions at: FALE (DURBAN SHAKA , ZA) observed 1157 UTC 21 September 2017
Temperature: 24.0°C (75°F)
Dewpoint: 18.0°C (64°F) [RH = 69%]
Pressure (altimeter): 29.97 inches Hg (1015.0 mb)
Winds: from the NNE (30 degrees) at 18 MPH (16 knots; 8.3 m/s)
gusting to 30 MPH (26 knots; 13.5 m/s)
Visibility: 6 or more miles (10+ km)
Ceiling: ceiling and visibility are OK
Clouds: unknown
Weather: no significant weather observed at this time

Array
East London - South Africa, FAEL

ADDS - TAFS form results

Aviation Digital Data Service (ADDS)

Output produced by TAFs form (1203 UTC 21 September 2017)
found at http://aviationweather.gov/adds/tafs/
 
METAR text: FAEL 211102Z 03014G25KT 010V070 CAVOK 25/16 Q1011
Conditions at: FAEL (EAST LONDON/SCHO, ZA) observed 1102 UTC 21 September 2017
Temperature: 25.0°C (77°F)
Dewpoint: 16.0°C (61°F) [RH = 57%]
Pressure (altimeter): 29.85 inches Hg (1011.0 mb)
Winds: from the NNE (30 degrees) at 16 MPH (14 knots; 7.3 m/s)
gusting to 29 MPH (25 knots; 13.0 m/s)
Visibility: 6 or more miles (10+ km)
Ceiling: ceiling and visibility are OK
Clouds: unknown
Weather: no significant weather observed at this time

Array
George - South Africa, FAGG

ADDS - TAFS form results

Aviation Digital Data Service (ADDS)

Output produced by TAFs form (1203 UTC 21 September 2017)
found at http://aviationweather.gov/adds/tafs/
 
METAR text: FAGG 211100Z 20004KT CAVOK 23/15 Q1008
Conditions at: FAGG (GEORGE/P. W. BOT, ZA) observed 1100 UTC 21 September 2017
Temperature: 23.0°C (73°F)
Dewpoint: 15.0°C (59°F) [RH = 61%]
Pressure (altimeter): 29.76 inches Hg (1008.0 mb)
Winds: from the SSW (200 degrees) at 5 MPH (4 knots; 2.1 m/s)
Visibility: 6 or more miles (10+ km)
Ceiling: ceiling and visibility are OK
Clouds: unknown
Weather: no significant weather observed at this time

Array
Hoedspruit - South Africa, FAHS

ADDS - TAFS form results

Aviation Digital Data Service (ADDS)

Output produced by TAFs form (1203 UTC 21 September 2017)
found at http://aviationweather.gov/adds/tafs/
 
METAR text: FAHS 211100Z AUTO 07004KT //// // ////// 26/16 Q1024
Conditions at: FAHS (HOEDSPRUIT (SAAF, ZA) observed 1100 UTC 21 September 2017
Temperature: 26.0°C (79°F)
Dewpoint: 16.0°C (61°F) [RH = 54%]
Pressure (altimeter): 30.24 inches Hg (1024.0 mb)
Winds: from the ENE (70 degrees) at 5 MPH (4 knots; 2.1 m/s)
Visibility: missing
Ceiling: unknown
Clouds: missing
Weather: no significant weather observed at this time

Array
Lanseria - South Africa, FALA

ADDS - TAFS form results

Aviation Digital Data Service (ADDS)

Output produced by TAFs form (1203 UTC 21 September 2017)
found at http://aviationweather.gov/adds/tafs/
 
METAR text: FALA 211100Z 03009KT 350V080 CAVOK 25/08 Q1027 NOSIG
Conditions at: FALA (LANSERIA (CIV/MI, ZA) observed 1100 UTC 21 September 2017
Temperature: 25.0°C (77°F)
Dewpoint: 8.0°C (46°F) [RH = 34%]
Pressure (altimeter): 30.32 inches Hg (1027.0 mb)
Winds: from the NNE (30 degrees) at 10 MPH (9 knots; 4.7 m/s)
Visibility: 6 or more miles (10+ km)
Ceiling: ceiling and visibility are OK
Clouds: unknown
Weather: no significant weather observed at this time

Array
Makhado AFB - South Africa, FALM

ADDS - TAFS form results

Aviation Digital Data Service (ADDS)

Output produced by TAFs form (1203 UTC 21 September 2017)
found at http://aviationweather.gov/adds/tafs/
 
METAR text: FALM 211100Z 12010KT 8000 FEW030 24/// Q1027
Conditions at: FALM (MAKHADO AFB , ZA) observed 1100 UTC 21 September 2017
Temperature: missing
Dewpoint: missing
Pressure (altimeter): 30.32 inches Hg (1027.0 mb)
Winds: from the ESE (120 degrees) at 12 MPH (10 knots; 5.2 m/s)
Visibility: 5 miles (8 km)
Ceiling: at least 12,000 feet AGL
Clouds: few clouds at 3000 feet AGL
Weather: no significant weather observed at this time

Array
Mmabatho - South Africa, FAMM

ADDS - TAFS form results

Aviation Digital Data Service (ADDS)

Output produced by TAFs form (1203 UTC 21 September 2017)
found at http://aviationweather.gov/adds/tafs/
 
METAR text: FAMM 211100Z 01015KT CAVOK 31/08 Q1025 NOSIG
Conditions at: FAMM (MMABATHO INTL AR, ZA) observed 1100 UTC 21 September 2017
Temperature: 31.0°C (88°F)
Dewpoint: 8.0°C (46°F) [RH = 24%]
Pressure (altimeter): 30.27 inches Hg (1025.0 mb)
Winds: from the N (10 degrees) at 17 MPH (15 knots; 7.8 m/s)
Visibility: 6 or more miles (10+ km)
Ceiling: ceiling and visibility are OK
Clouds: unknown
Weather: no significant weather observed at this time

Array
ORT Johannesburg - South Africa, FAOR

ADDS - TAFS form results

Aviation Digital Data Service (ADDS)

Output produced by TAFs form (1203 UTC 21 September 2017)
found at http://aviationweather.gov/adds/tafs/
 
METAR text: FAOR 211100Z 36012KT 320V030 CAVOK 23/08 Q1029 NOSIG
Conditions at: FAOR (JOHANNESBURG/TAM, ZA) observed 1100 UTC 21 September 2017
Temperature: 23.0°C (73°F)
Dewpoint: 8.0°C (46°F) [RH = 38%]
Pressure (altimeter): 30.38 inches Hg (1029.0 mb)
Winds: from the N (360 degrees) at 14 MPH (12 knots; 6.2 m/s)
Visibility: 6 or more miles (10+ km)
Ceiling: ceiling and visibility are OK
Clouds: unknown
Weather: no significant weather observed at this time

Array
Kruger Mpumalanga - South Africa, FAKN

ADDS - TAFS form results

Aviation Digital Data Service (ADDS)

Output produced by TAFs form (1203 UTC 21 September 2017)
found at http://aviationweather.gov/adds/tafs/
 
METAR text: FAKN 211100Z 08011KT CAVOK 26/09 Q1025 NOSIG
Conditions at: FAKN (KRUGER MPUMALANG, ZA) observed 1100 UTC 21 September 2017
Temperature: 26.0°C (79°F)
Dewpoint: 9.0°C (48°F) [RH = 34%]
Pressure (altimeter): 30.27 inches Hg (1025.0 mb)
Winds: from the E (80 degrees) at 13 MPH (11 knots; 5.7 m/s)
Visibility: 6 or more miles (10+ km)
Ceiling: ceiling and visibility are OK
Clouds: unknown
Weather: no significant weather observed at this time

Array
Pietermaritzburg - South Africa, FAPM

ADDS - TAFS form results

Aviation Digital Data Service (ADDS)

Output produced by TAFs form (1203 UTC 21 September 2017)
found at http://aviationweather.gov/adds/tafs/
 
You entered "FAPM"

Sorry, either there are no data available for your request or you did not enter any valid ICAO airport abbreviations.

See stations.txt for a list of known METAR and TAF locations. Then go back to the ADDS METARs or TAFs page and try again
 
Please try again and, if problems persist, then send mail to ncep.awc.adds@noaa.gov
Array
Polokwane - South Africa, FAPP

ADDS - TAFS form results

Aviation Digital Data Service (ADDS)

Output produced by TAFs form (1203 UTC 21 September 2017)
found at http://aviationweather.gov/adds/tafs/
 
METAR text: FAPP 211100Z 04007KT CAVOK 23/10 Q1027 NOSIG
Conditions at: FAPP (POLOKWANE INTL , ZA) observed 1100 UTC 21 September 2017
Temperature: 23.0°C (73°F)
Dewpoint: 10.0°C (50°F) [RH = 44%]
Pressure (altimeter): 30.32 inches Hg (1027.0 mb)
Winds: from the NE (40 degrees) at 8 MPH (7 knots; 3.6 m/s)
Visibility: 6 or more miles (10+ km)
Ceiling: ceiling and visibility are OK
Clouds: unknown
Weather: no significant weather observed at this time

Array
Port Elizabeth - South Africa, FAPE

ADDS - TAFS form results

Aviation Digital Data Service (ADDS)

Output produced by TAFs form (1203 UTC 21 September 2017)
found at http://aviationweather.gov/adds/tafs/
 
METAR text: FAPE 211100Z 04012KT 9999 FEW009 21/16 Q1009 NOSIG
Conditions at: FAPE (PORT ELIZABETH , ZA) observed 1100 UTC 21 September 2017
Temperature: 21.0°C (70°F)
Dewpoint: 16.0°C (61°F) [RH = 73%]
Pressure (altimeter): 29.79 inches Hg (1009.0 mb)
Winds: from the NE (40 degrees) at 14 MPH (12 knots; 6.2 m/s)
Visibility: 6 or more miles (10+ km)
Ceiling: at least 12,000 feet AGL
Clouds: few clouds at 900 feet AGL
Weather: no significant weather observed at this time

Array
Richards Bay - South Africa, FATB

ADDS - TAFS form results

Aviation Digital Data Service (ADDS)

Output produced by TAFs form (1203 UTC 21 September 2017)
found at http://aviationweather.gov/adds/tafs/
 
You entered "FATB"

Sorry, either there are no data available for your request or you did not enter any valid ICAO airport abbreviations.

See stations.txt for a list of known METAR and TAF locations. Then go back to the ADDS METARs or TAFs page and try again
 
Please try again and, if problems persist, then send mail to ncep.awc.adds@noaa.gov
Array
Upington - South Africa, FAUP

ADDS - TAFS form results

Aviation Digital Data Service (ADDS)

Output produced by TAFs form (1203 UTC 21 September 2017)
found at http://aviationweather.gov/adds/tafs/
 
METAR text: FAUP 211100Z 35019KT CAVOK 35/04 Q1016 NOSIG
Conditions at: FAUP (UPINGTON/PIERRE , ZA) observed 1100 UTC 21 September 2017
Temperature: 35.0°C (95°F)
Dewpoint: 4.0°C (39°F) [RH = 14%]
Pressure (altimeter): 30.00 inches Hg (1016.0 mb)
Winds: from the N (350 degrees) at 22 MPH (19 knots; 9.9 m/s)
Visibility: 6 or more miles (10+ km)
Ceiling: ceiling and visibility are OK
Clouds: unknown
Weather: no significant weather observed at this time

Array
Wonderboom - South Africa, FAWB

ADDS - TAFS form results

Aviation Digital Data Service (ADDS)

Output produced by TAFs form (1203 UTC 21 September 2017)
found at http://aviationweather.gov/adds/tafs/
 
METAR text: FAWB 211100Z AUTO 01007KT //// // ////// 29/08 Q1025
Conditions at: FAWB (WONDERBOOM/PRETO, ZA) observed 1100 UTC 21 September 2017
Temperature: 29.0°C (84°F)
Dewpoint: 8.0°C (46°F) [RH = 27%]
Pressure (altimeter): 30.27 inches Hg (1025.0 mb)
Winds: from the N (10 degrees) at 8 MPH (7 knots; 3.6 m/s)
Visibility: missing
Ceiling: unknown
Clouds: missing
Weather: no significant weather observed at this time

Array